sensor_id;sensor_type;location;lat;lon;timestamp;P1;durP1;ratioP1;P2;durP2;ratioP2
37297;SDS011;30517;51.932;4.278;2022-11-11T00:00:25;8.52;;;4.80;;
37297;SDS011;30517;51.932;4.278;2022-11-11T00:03:06;7.88;;;4.65;;
37297;SDS011;30517;51.932;4.278;2022-11-11T00:05:47;9.63;;;5.22;;
37297;SDS011;30517;51.932;4.278;2022-11-11T00:08:28;8.55;;;4.75;;
37297;SDS011;30517;51.932;4.278;2022-11-11T00:11:09;8.93;;;4.93;;
37297;SDS011;30517;51.932;4.278;2022-11-11T00:13:52;7.68;;;4.97;;
37297;SDS011;30517;51.932;4.278;2022-11-11T00:16:33;8.20;;;5.05;;
37297;SDS011;30517;51.932;4.278;2022-11-11T00:19:33;10.73;;;5.13;;
37297;SDS011;30517;51.932;4.278;2022-11-11T00:22:32;8.90;;;4.63;;
37297;SDS011;30517;51.932;4.278;2022-11-11T00:25:32;9.18;;;5.18;;
37297;SDS011;30517;51.932;4.278;2022-11-11T00:28:15;7.18;;;4.90;;
37297;SDS011;30517;51.932;4.278;2022-11-11T00:36:21;9.38;;;5.13;;
37297;SDS011;30517;51.932;4.278;2022-11-11T00:39:02;10.13;;;5.47;;
37297;SDS011;30517;51.932;4.278;2022-11-11T00:41:43;9.85;;;5.45;;
37297;SDS011;30517;51.932;4.278;2022-11-11T00:44:23;9.27;;;5.15;;
37297;SDS011;30517;51.932;4.278;2022-11-11T00:47:04;11.43;;;5.90;;
37297;SDS011;30517;51.932;4.278;2022-11-11T00:50:04;10.25;;;5.55;;
37297;SDS011;30517;51.932;4.278;2022-11-11T00:53:15;10.57;;;6.32;;
37297;SDS011;30517;51.932;4.278;2022-11-11T00:55:57;11.07;;;6.60;;
37297;SDS011;30517;51.932;4.278;2022-11-11T00:58:38;9.93;;;5.57;;
37297;SDS011;30517;51.932;4.278;2022-11-11T01:01:19;8.25;;;5.53;;
37297;SDS011;30517;51.932;4.278;2022-11-11T01:04:00;9.27;;;6.28;;
37297;SDS011;30517;51.932;4.278;2022-11-11T01:06:41;11.20;;;6.15;;
37297;SDS011;30517;51.932;4.278;2022-11-11T01:09:21;11.48;;;6.00;;
37297;SDS011;30517;51.932;4.278;2022-11-11T01:12:02;9.40;;;6.25;;
37297;SDS011;30517;51.932;4.278;2022-11-11T01:14:43;9.48;;;6.50;;
37297;SDS011;30517;51.932;4.278;2022-11-11T01:17:24;9.15;;;6.15;;
37297;SDS011;30517;51.932;4.278;2022-11-11T01:20:05;9.32;;;5.97;;
37297;SDS011;30517;51.932;4.278;2022-11-11T01:22:46;10.02;;;6.70;;
37297;SDS011;30517;51.932;4.278;2022-11-11T01:25:26;12.07;;;6.93;;
37297;SDS011;30517;51.932;4.278;2022-11-11T01:28:07;11.40;;;7.15;;
37297;SDS011;30517;51.932;4.278;2022-11-11T01:30:48;10.38;;;7.32;;
37297;SDS011;30517;51.932;4.278;2022-11-11T01:33:29;10.85;;;6.95;;
37297;SDS011;30517;51.932;4.278;2022-11-11T01:36:14;10.88;;;6.88;;
37297;SDS011;30517;51.932;4.278;2022-11-11T01:39:06;10.52;;;7.13;;
37297;SDS011;30517;51.932;4.278;2022-11-11T01:41:48;12.88;;;6.60;;
37297;SDS011;30517;51.932;4.278;2022-11-11T01:44:42;8.57;;;6.00;;
37297;SDS011;30517;51.932;4.278;2022-11-11T01:47:25;10.82;;;7.00;;
37297;SDS011;30517;51.932;4.278;2022-11-11T01:50:26;11.18;;;6.88;;
37297;SDS011;30517;51.932;4.278;2022-11-11T01:53:06;11.18;;;7.25;;
37297;SDS011;30517;51.932;4.278;2022-11-11T01:55:47;12.85;;;7.70;;
37297;SDS011;30517;51.932;4.278;2022-11-11T01:58:28;11.52;;;6.82;;
37297;SDS011;30517;51.932;4.278;2022-11-11T02:01:09;13.00;;;6.70;;
37297;SDS011;30517;51.932;4.278;2022-11-11T02:03:51;11.93;;;7.18;;
37297;SDS011;30517;51.932;4.278;2022-11-11T02:06:53;12.90;;;7.15;;
37297;SDS011;30517;51.932;4.278;2022-11-11T02:09:38;9.93;;;6.65;;
37297;SDS011;30517;51.932;4.278;2022-11-11T02:12:23;11.32;;;6.63;;
37297;SDS011;30517;51.932;4.278;2022-11-11T02:15:22;12.30;;;6.88;;
37297;SDS011;30517;51.932;4.278;2022-11-11T02:18:03;10.55;;;6.55;;
37297;SDS011;30517;51.932;4.278;2022-11-11T02:20:44;14.23;;;7.50;;
37297;SDS011;30517;51.932;4.278;2022-11-11T02:26:21;13.98;;;7.35;;
37297;SDS011;30517;51.932;4.278;2022-11-11T02:29:04;13.45;;;7.68;;
37297;SDS011;30517;51.932;4.278;2022-11-11T02:31:49;11.55;;;7.07;;
37297;SDS011;30517;51.932;4.278;2022-11-11T02:34:30;11.13;;;7.50;;
37297;SDS011;30517;51.932;4.278;2022-11-11T02:37:12;13.88;;;7.78;;
37297;SDS011;30517;51.932;4.278;2022-11-11T02:39:57;14.63;;;8.05;;
37297;SDS011;30517;51.932;4.278;2022-11-11T02:42:41;11.02;;;7.30;;
37297;SDS011;30517;51.932;4.278;2022-11-11T02:45:22;12.20;;;7.80;;
37297;SDS011;30517;51.932;4.278;2022-11-11T02:48:03;10.30;;;7.15;;
37297;SDS011;30517;51.932;4.278;2022-11-11T02:50:44;12.55;;;7.93;;
37297;SDS011;30517;51.932;4.278;2022-11-11T02:53:25;11.77;;;7.35;;
37297;SDS011;30517;51.932;4.278;2022-11-11T02:56:05;12.93;;;8.00;;
37297;SDS011;30517;51.932;4.278;2022-11-11T02:58:46;10.73;;;7.25;;
37297;SDS011;30517;51.932;4.278;2022-11-11T03:01:27;11.90;;;8.18;;
37297;SDS011;30517;51.932;4.278;2022-11-11T03:04:08;13.45;;;7.55;;
37297;SDS011;30517;51.932;4.278;2022-11-11T03:06:49;13.43;;;8.23;;
37297;SDS011;30517;51.932;4.278;2022-11-11T03:09:29;13.95;;;7.80;;
37297;SDS011;30517;51.932;4.278;2022-11-11T03:12:11;12.40;;;7.82;;
37297;SDS011;30517;51.932;4.278;2022-11-11T03:14:51;11.73;;;6.80;;
37297;SDS011;30517;51.932;4.278;2022-11-11T03:17:34;11.43;;;7.30;;
37297;SDS011;30517;51.932;4.278;2022-11-11T03:20:20;11.68;;;7.43;;
37297;SDS011;30517;51.932;4.278;2022-11-11T03:23:20;10.95;;;6.43;;
37297;SDS011;30517;51.932;4.278;2022-11-11T03:26:00;13.85;;;8.18;;
37297;SDS011;30517;51.932;4.278;2022-11-11T03:28:41;11.20;;;7.45;;
37297;SDS011;30517;51.932;4.278;2022-11-11T03:31:22;10.95;;;7.53;;
37297;SDS011;30517;51.932;4.278;2022-11-11T03:34:03;13.13;;;8.10;;
37297;SDS011;30517;51.932;4.278;2022-11-11T03:36:59;15.40;;;7.85;;
37297;SDS011;30517;51.932;4.278;2022-11-11T03:39:59;11.45;;;7.43;;
37297;SDS011;30517;51.932;4.278;2022-11-11T03:42:39;13.38;;;8.77;;
37297;SDS011;30517;51.932;4.278;2022-11-11T03:45:22;13.55;;;8.30;;
37297;SDS011;30517;51.932;4.278;2022-11-11T03:48:03;12.27;;;7.50;;
37297;SDS011;30517;51.932;4.278;2022-11-11T03:50:47;10.60;;;7.25;;
37297;SDS011;30517;51.932;4.278;2022-11-11T03:53:28;11.10;;;7.82;;
37297;SDS011;30517;51.932;4.278;2022-11-11T03:56:09;11.00;;;7.82;;
37297;SDS011;30517;51.932;4.278;2022-11-11T03:58:49;11.82;;;7.57;;
37297;SDS011;30517;51.932;4.278;2022-11-11T04:01:30;12.88;;;8.50;;
37297;SDS011;30517;51.932;4.278;2022-11-11T04:04:29;12.43;;;7.57;;
37297;SDS011;30517;51.932;4.278;2022-11-11T04:07:29;14.98;;;8.02;;
37297;SDS011;30517;51.932;4.278;2022-11-11T04:10:29;12.90;;;7.90;;
37297;SDS011;30517;51.932;4.278;2022-11-11T04:13:10;13.23;;;8.85;;
37297;SDS011;30517;51.932;4.278;2022-11-11T04:16:10;12.02;;;8.07;;
37297;SDS011;30517;51.932;4.278;2022-11-11T04:18:51;12.73;;;8.07;;
37297;SDS011;30517;51.932;4.278;2022-11-11T04:21:50;12.63;;;8.60;;
37297;SDS011;30517;51.932;4.278;2022-11-11T04:24:31;12.07;;;8.25;;
37297;SDS011;30517;51.932;4.278;2022-11-11T04:27:31;15.43;;;8.60;;
37297;SDS011;30517;51.932;4.278;2022-11-11T04:30:12;14.40;;;8.40;;
37297;SDS011;30517;51.932;4.278;2022-11-11T04:32:52;13.35;;;8.73;;
37297;SDS011;30517;51.932;4.278;2022-11-11T04:35:33;11.00;;;7.95;;
37297;SDS011;30517;51.932;4.278;2022-11-11T04:38:14;14.27;;;8.82;;
37297;SDS011;30517;51.932;4.278;2022-11-11T04:41:14;11.98;;;8.13;;
37297;SDS011;30517;51.932;4.278;2022-11-11T04:43:54;13.68;;;8.45;;
37297;SDS011;30517;51.932;4.278;2022-11-11T04:46:54;12.27;;;8.45;;
37297;SDS011;30517;51.932;4.278;2022-11-11T04:49:35;12.60;;;8.35;;
37297;SDS011;30517;51.932;4.278;2022-11-11T04:52:15;13.70;;;8.95;;
37297;SDS011;30517;51.932;4.278;2022-11-11T04:55:05;12.98;;;9.07;;
37297;SDS011;30517;51.932;4.278;2022-11-11T04:58:06;12.68;;;8.75;;
37297;SDS011;30517;51.932;4.278;2022-11-11T05:00:46;19.17;;;9.35;;
37297;SDS011;30517;51.932;4.278;2022-11-11T05:03:27;12.35;;;8.40;;
37297;SDS011;30517;51.932;4.278;2022-11-11T05:06:08;12.52;;;8.70;;
37297;SDS011;30517;51.932;4.278;2022-11-11T05:09:07;12.68;;;8.18;;
37297;SDS011;30517;51.932;4.278;2022-11-11T05:11:48;13.27;;;8.13;;
37297;SDS011;30517;51.932;4.278;2022-11-11T05:14:29;12.93;;;8.77;;
37297;SDS011;30517;51.932;4.278;2022-11-11T05:17:28;13.23;;;9.07;;
37297;SDS011;30517;51.932;4.278;2022-11-11T05:20:27;14.50;;;8.50;;
37297;SDS011;30517;51.932;4.278;2022-11-11T05:23:27;13.48;;;8.60;;
37297;SDS011;30517;51.932;4.278;2022-11-11T05:26:28;12.75;;;8.68;;
37297;SDS011;30517;51.932;4.278;2022-11-11T05:29:08;14.60;;;8.65;;
37297;SDS011;30517;51.932;4.278;2022-11-11T05:31:49;13.95;;;9.10;;
37297;SDS011;30517;51.932;4.278;2022-11-11T05:34:30;18.85;;;9.25;;
37297;SDS011;30517;51.932;4.278;2022-11-11T05:37:11;13.60;;;8.85;;
37297;SDS011;30517;51.932;4.278;2022-11-11T05:39:52;12.15;;;7.88;;
37297;SDS011;30517;51.932;4.278;2022-11-11T05:42:33;13.02;;;8.85;;
37297;SDS011;30517;51.932;4.278;2022-11-11T05:45:14;13.45;;;8.75;;
37297;SDS011;30517;51.932;4.278;2022-11-11T05:47:59;12.18;;;8.50;;
37297;SDS011;30517;51.932;4.278;2022-11-11T05:50:40;12.13;;;8.85;;
37297;SDS011;30517;51.932;4.278;2022-11-11T05:53:21;13.05;;;8.00;;
37297;SDS011;30517;51.932;4.278;2022-11-11T05:56:03;14.55;;;9.50;;
37297;SDS011;30517;51.932;4.278;2022-11-11T05:58:45;14.18;;;9.18;;
37297;SDS011;30517;51.932;4.278;2022-11-11T06:01:25;13.48;;;8.88;;
37297;SDS011;30517;51.932;4.278;2022-11-11T06:04:06;11.77;;;7.95;;
37297;SDS011;30517;51.932;4.278;2022-11-11T06:06:47;14.32;;;9.13;;
37297;SDS011;30517;51.932;4.278;2022-11-11T06:09:28;12.90;;;9.20;;
37297;SDS011;30517;51.932;4.278;2022-11-11T06:12:09;11.82;;;8.95;;
37297;SDS011;30517;51.932;4.278;2022-11-11T06:14:49;14.20;;;9.23;;
37297;SDS011;30517;51.932;4.278;2022-11-11T06:17:32;21.15;;;12.63;;
37297;SDS011;30517;51.932;4.278;2022-11-11T06:20:13;19.20;;;12.73;;
37297;SDS011;30517;51.932;4.278;2022-11-11T06:22:54;16.00;;;11.45;;
37297;SDS011;30517;51.932;4.278;2022-11-11T06:25:35;16.42;;;11.20;;
37297;SDS011;30517;51.932;4.278;2022-11-11T06:28:34;17.35;;;11.02;;
37297;SDS011;30517;51.932;4.278;2022-11-11T06:31:20;17.15;;;11.30;;
37297;SDS011;30517;51.932;4.278;2022-11-11T06:34:02;18.30;;;12.50;;
37297;SDS011;30517;51.932;4.278;2022-11-11T06:36:42;15.18;;;10.75;;
37297;SDS011;30517;51.932;4.278;2022-11-11T06:39:23;18.25;;;11.60;;
37297;SDS011;30517;51.932;4.278;2022-11-11T06:42:04;16.23;;;11.70;;
37297;SDS011;30517;51.932;4.278;2022-11-11T06:44:45;18.10;;;10.63;;
37297;SDS011;30517;51.932;4.278;2022-11-11T06:47:25;16.40;;;11.30;;
37297;SDS011;30517;51.932;4.278;2022-11-11T06:50:06;17.55;;;11.30;;
37297;SDS011;30517;51.932;4.278;2022-11-11T06:52:47;20.98;;;12.48;;
37297;SDS011;30517;51.932;4.278;2022-11-11T06:55:28;17.75;;;11.63;;
37297;SDS011;30517;51.932;4.278;2022-11-11T07:00:55;18.90;;;12.02;;
37297;SDS011;30517;51.932;4.278;2022-11-11T07:03:36;20.05;;;12.98;;
37297;SDS011;30517;51.932;4.278;2022-11-11T07:06:17;18.60;;;11.38;;
37297;SDS011;30517;51.932;4.278;2022-11-11T07:08:57;19.60;;;12.40;;
37297;SDS011;30517;51.932;4.278;2022-11-11T07:11:38;18.42;;;11.85;;
37297;SDS011;30517;51.932;4.278;2022-11-11T07:14:19;19.15;;;13.10;;
37297;SDS011;30517;51.932;4.278;2022-11-11T07:17:00;19.65;;;12.13;;
37297;SDS011;30517;51.932;4.278;2022-11-11T07:19:41;20.30;;;12.38;;
37297;SDS011;30517;51.932;4.278;2022-11-11T07:22:21;18.85;;;12.05;;
37297;SDS011;30517;51.932;4.278;2022-11-11T07:25:02;19.88;;;12.52;;
37297;SDS011;30517;51.932;4.278;2022-11-11T07:27:43;18.92;;;13.10;;
37297;SDS011;30517;51.932;4.278;2022-11-11T07:30:24;19.60;;;12.38;;
37297;SDS011;30517;51.932;4.278;2022-11-11T07:33:05;21.00;;;13.80;;
37297;SDS011;30517;51.932;4.278;2022-11-11T07:35:46;26.65;;;17.83;;
37297;SDS011;30517;51.932;4.278;2022-11-11T07:38:27;28.65;;;18.80;;
37297;SDS011;30517;51.932;4.278;2022-11-11T07:41:08;25.65;;;16.73;;
37297;SDS011;30517;51.932;4.278;2022-11-11T07:43:49;28.80;;;17.38;;
37297;SDS011;30517;51.932;4.278;2022-11-11T07:46:30;26.67;;;17.73;;
37297;SDS011;30517;51.932;4.278;2022-11-11T07:49:10;30.38;;;17.20;;
37297;SDS011;30517;51.932;4.278;2022-11-11T07:51:51;23.73;;;16.80;;
37297;SDS011;30517;51.932;4.278;2022-11-11T07:54:32;25.95;;;17.15;;
37297;SDS011;30517;51.932;4.278;2022-11-11T07:57:13;26.13;;;17.52;;
37297;SDS011;30517;51.932;4.278;2022-11-11T07:59:53;23.55;;;15.50;;
37297;SDS011;30517;51.932;4.278;2022-11-11T08:02:34;25.60;;;16.33;;
37297;SDS011;30517;51.932;4.278;2022-11-11T08:05:15;22.83;;;16.02;;
37297;SDS011;30517;51.932;4.278;2022-11-11T08:08:01;25.63;;;17.27;;
37297;SDS011;30517;51.932;4.278;2022-11-11T08:10:45;25.23;;;16.27;;
37297;SDS011;30517;51.932;4.278;2022-11-11T08:13:26;24.83;;;16.80;;
37297;SDS011;30517;51.932;4.278;2022-11-11T08:16:19;27.73;;;16.60;;
37297;SDS011;30517;51.932;4.278;2022-11-11T08:19:00;24.50;;;16.08;;
37297;SDS011;30517;51.932;4.278;2022-11-11T08:21:41;25.38;;;15.23;;
37297;SDS011;30517;51.932;4.278;2022-11-11T08:24:22;26.00;;;16.23;;
37297;SDS011;30517;51.932;4.278;2022-11-11T08:27:02;22.23;;;15.15;;
37297;SDS011;30517;51.932;4.278;2022-11-11T08:29:43;20.63;;;15.40;;
37297;SDS011;30517;51.932;4.278;2022-11-11T08:32:24;22.67;;;14.82;;
37297;SDS011;30517;51.932;4.278;2022-11-11T08:35:05;20.98;;;14.48;;
37297;SDS011;30517;51.932;4.278;2022-11-11T08:37:46;20.65;;;13.95;;
37297;SDS011;30517;51.932;4.278;2022-11-11T08:40:27;23.05;;;16.23;;
37297;SDS011;30517;51.932;4.278;2022-11-11T08:43:08;24.20;;;15.35;;
37297;SDS011;30517;51.932;4.278;2022-11-11T08:45:51;38.33;;;17.83;;
37297;SDS011;30517;51.932;4.278;2022-11-11T08:48:32;36.15;;;19.70;;
37297;SDS011;30517;51.932;4.278;2022-11-11T08:51:13;30.73;;;18.63;;
37297;SDS011;30517;51.932;4.278;2022-11-11T08:53:54;26.55;;;17.75;;
37297;SDS011;30517;51.932;4.278;2022-11-11T08:56:35;32.67;;;19.33;;
37297;SDS011;30517;51.932;4.278;2022-11-11T08:59:16;32.70;;;18.70;;
37297;SDS011;30517;51.932;4.278;2022-11-11T09:01:57;25.92;;;16.80;;
37297;SDS011;30517;51.932;4.278;2022-11-11T09:04:38;31.50;;;17.02;;
37297;SDS011;30517;51.932;4.278;2022-11-11T09:07:19;29.25;;;18.05;;
37297;SDS011;30517;51.932;4.278;2022-11-11T09:10:00;27.77;;;17.27;;
37297;SDS011;30517;51.932;4.278;2022-11-11T09:12:41;25.75;;;16.48;;
37297;SDS011;30517;51.932;4.278;2022-11-11T09:15:22;23.17;;;15.70;;
37297;SDS011;30517;51.932;4.278;2022-11-11T09:18:03;24.55;;;15.90;;
37297;SDS011;30517;51.932;4.278;2022-11-11T09:20:44;24.33;;;15.77;;
37297;SDS011;30517;51.932;4.278;2022-11-11T09:23:24;23.20;;;15.63;;
37297;SDS011;30517;51.932;4.278;2022-11-11T09:26:05;25.08;;;16.58;;
37297;SDS011;30517;51.932;4.278;2022-11-11T09:28:46;23.23;;;16.17;;
37297;SDS011;30517;51.932;4.278;2022-11-11T09:31:27;27.63;;;17.77;;
37297;SDS011;30517;51.932;4.278;2022-11-11T09:34:08;26.92;;;17.85;;
37297;SDS011;30517;51.932;4.278;2022-11-11T09:36:48;24.05;;;15.98;;
37297;SDS011;30517;51.932;4.278;2022-11-11T09:39:29;27.15;;;16.30;;
37297;SDS011;30517;51.932;4.278;2022-11-11T09:42:17;23.48;;;16.02;;
37297;SDS011;30517;51.932;4.278;2022-11-11T09:45:18;26.02;;;16.35;;
37297;SDS011;30517;51.932;4.278;2022-11-11T09:50:56;22.55;;;15.75;;
37297;SDS011;30517;51.932;4.278;2022-11-11T09:53:40;21.92;;;14.85;;
37297;SDS011;30517;51.932;4.278;2022-11-11T09:56:24;22.25;;;16.08;;
37297;SDS011;30517;51.932;4.278;2022-11-11T10:01:56;23.67;;;15.32;;
37297;SDS011;30517;51.932;4.278;2022-11-11T10:04:55;21.75;;;15.75;;
37297;SDS011;30517;51.932;4.278;2022-11-11T10:07:47;22.48;;;14.50;;
37297;SDS011;30517;51.932;4.278;2022-11-11T10:10:45;22.77;;;15.00;;
37297;SDS011;30517;51.932;4.278;2022-11-11T10:13:36;27.13;;;15.38;;
37297;SDS011;30517;51.932;4.278;2022-11-11T10:16:21;20.65;;;14.93;;
37297;SDS011;30517;51.932;4.278;2022-11-11T10:19:49;21.08;;;14.35;;
37297;SDS011;30517;51.932;4.278;2022-11-11T10:22:39;22.13;;;15.00;;
37297;SDS011;30517;51.932;4.278;2022-11-11T10:25:25;19.52;;;13.85;;
37297;SDS011;30517;51.932;4.278;2022-11-11T10:28:07;21.02;;;14.55;;
37297;SDS011;30517;51.932;4.278;2022-11-11T10:30:53;22.80;;;14.50;;
37297;SDS011;30517;51.932;4.278;2022-11-11T10:33:45;18.70;;;13.77;;
37297;SDS011;30517;51.932;4.278;2022-11-11T10:36:39;21.02;;;14.38;;
37297;SDS011;30517;51.932;4.278;2022-11-11T10:39:51;20.75;;;13.85;;
37297;SDS011;30517;51.932;4.278;2022-11-11T10:42:38;19.98;;;13.98;;
37297;SDS011;30517;51.932;4.278;2022-11-11T10:48:57;18.63;;;13.18;;
37297;SDS011;30517;51.932;4.278;2022-11-11T10:52:04;19.30;;;14.60;;
37297;SDS011;30517;51.932;4.278;2022-11-11T10:55:29;19.00;;;13.35;;
37297;SDS011;30517;51.932;4.278;2022-11-11T10:58:21;20.60;;;13.30;;
37297;SDS011;30517;51.932;4.278;2022-11-11T11:01:04;23.00;;;14.35;;
37297;SDS011;30517;51.932;4.278;2022-11-11T11:03:49;20.98;;;14.23;;
37297;SDS011;30517;51.932;4.278;2022-11-11T11:06:38;20.00;;;14.30;;
37297;SDS011;30517;51.932;4.278;2022-11-11T11:09:30;17.33;;;13.40;;
37297;SDS011;30517;51.932;4.278;2022-11-11T11:12:17;19.65;;;13.15;;
37297;SDS011;30517;51.932;4.278;2022-11-11T11:15:09;18.83;;;13.40;;
37297;SDS011;30517;51.932;4.278;2022-11-11T11:18:02;22.30;;;14.25;;
37297;SDS011;30517;51.932;4.278;2022-11-11T11:20:57;18.27;;;13.13;;
37297;SDS011;30517;51.932;4.278;2022-11-11T11:23:40;17.80;;;12.60;;
37297;SDS011;30517;51.932;4.278;2022-11-11T11:26:23;21.50;;;13.32;;
37297;SDS011;30517;51.932;4.278;2022-11-11T11:29:03;21.45;;;13.52;;
37297;SDS011;30517;51.932;4.278;2022-11-11T11:31:45;18.55;;;11.77;;
37297;SDS011;30517;51.932;4.278;2022-11-11T11:34:48;19.27;;;12.52;;
37297;SDS011;30517;51.932;4.278;2022-11-11T11:37:31;17.52;;;12.75;;
37297;SDS011;30517;51.932;4.278;2022-11-11T11:40:43;21.05;;;13.52;;
37297;SDS011;30517;51.932;4.278;2022-11-11T11:46:27;17.77;;;12.82;;
37297;SDS011;30517;51.932;4.278;2022-11-11T11:52:22;17.77;;;12.82;;
37297;SDS011;30517;51.932;4.278;2022-11-11T11:55:21;18.08;;;12.05;;
37297;SDS011;30517;51.932;4.278;2022-11-11T11:58:11;16.55;;;11.73;;
37297;SDS011;30517;51.932;4.278;2022-11-11T12:01:05;19.67;;;11.90;;
37297;SDS011;30517;51.932;4.278;2022-11-11T12:04:27;17.30;;;12.32;;
37297;SDS011;30517;51.932;4.278;2022-11-11T12:12:59;16.38;;;10.68;;
37297;SDS011;30517;51.932;4.278;2022-11-11T12:16:02;17.27;;;12.43;;
37297;SDS011;30517;51.932;4.278;2022-11-11T12:19:06;15.05;;;11.15;;
37297;SDS011;30517;51.932;4.278;2022-11-11T12:22:14;13.60;;;9.82;;
37297;SDS011;30517;51.932;4.278;2022-11-11T12:25:22;15.65;;;11.20;;
37297;SDS011;30517;51.932;4.278;2022-11-11T12:36:44;16.30;;;10.65;;
37297;SDS011;30517;51.932;4.278;2022-11-11T12:39:47;15.25;;;10.52;;
37297;SDS011;30517;51.932;4.278;2022-11-11T12:43:01;14.02;;;9.10;;
37297;SDS011;30517;51.932;4.278;2022-11-11T12:45:51;14.35;;;9.30;;
37297;SDS011;30517;51.932;4.278;2022-11-11T12:48:54;14.73;;;9.48;;
37297;SDS011;30517;51.932;4.278;2022-11-11T12:51:53;14.73;;;9.23;;
37297;SDS011;30517;51.932;4.278;2022-11-11T13:00:50;12.85;;;9.43;;
37297;SDS011;30517;51.932;4.278;2022-11-11T13:10:10;13.15;;;8.88;;
37297;SDS011;30517;51.932;4.278;2022-11-11T13:13:13;11.18;;;8.13;;
37297;SDS011;30517;51.932;4.278;2022-11-11T13:16:02;11.52;;;7.82;;
37297;SDS011;30517;51.932;4.278;2022-11-11T13:18:44;16.08;;;8.68;;
37297;SDS011;30517;51.932;4.278;2022-11-11T13:21:58;13.13;;;7.53;;
37297;SDS011;30517;51.932;4.278;2022-11-11T13:25:02;13.18;;;7.72;;
37297;SDS011;30517;51.932;4.278;2022-11-11T13:27:55;12.30;;;7.57;;
37297;SDS011;30517;51.932;4.278;2022-11-11T13:33:55;12.65;;;8.35;;
37297;SDS011;30517;51.932;4.278;2022-11-11T13:36:46;11.75;;;7.78;;
37297;SDS011;30517;51.932;4.278;2022-11-11T13:39:32;11.77;;;8.38;;
37297;SDS011;30517;51.932;4.278;2022-11-11T13:42:21;10.88;;;7.38;;
37297;SDS011;30517;51.932;4.278;2022-11-11T13:45:06;12.60;;;7.15;;
37297;SDS011;30517;51.932;4.278;2022-11-11T13:47:58;11.60;;;7.15;;
37297;SDS011;30517;51.932;4.278;2022-11-11T13:50:39;11.05;;;7.10;;
37297;SDS011;30517;51.932;4.278;2022-11-11T13:53:31;11.90;;;6.85;;
37297;SDS011;30517;51.932;4.278;2022-11-11T13:56:25;12.10;;;6.95;;
37297;SDS011;30517;51.932;4.278;2022-11-11T13:59:22;10.73;;;7.70;;
37297;SDS011;30517;51.932;4.278;2022-11-11T14:02:24;10.57;;;7.75;;
37297;SDS011;30517;51.932;4.278;2022-11-11T14:07:49;10.65;;;7.15;;
37297;SDS011;30517;51.932;4.278;2022-11-11T14:16:01;10.50;;;6.57;;
37297;SDS011;30517;51.932;4.278;2022-11-11T14:18:42;9.18;;;6.40;;
37297;SDS011;30517;51.932;4.278;2022-11-11T14:27:25;8.07;;;5.97;;
37297;SDS011;30517;51.932;4.278;2022-11-11T14:30:09;9.73;;;6.25;;
37297;SDS011;30517;51.932;4.278;2022-11-11T14:36:44;10.07;;;6.03;;
37297;SDS011;30517;51.932;4.278;2022-11-11T14:39:38;9.40;;;6.43;;
37297;SDS011;30517;51.932;4.278;2022-11-11T14:51:45;9.27;;;5.75;;
37297;SDS011;30517;51.932;4.278;2022-11-11T14:57:25;10.35;;;6.30;;
37297;SDS011;30517;51.932;4.278;2022-11-11T15:00:18;8.00;;;5.50;;
37297;SDS011;30517;51.932;4.278;2022-11-11T15:03:11;8.73;;;5.32;;
37297;SDS011;30517;51.932;4.278;2022-11-11T15:06:01;8.43;;;5.50;;
37297;SDS011;30517;51.932;4.278;2022-11-11T15:11:42;10.70;;;5.95;;
37297;SDS011;30517;51.932;4.278;2022-11-11T15:14:48;7.67;;;5.33;;
37297;SDS011;30517;51.932;4.278;2022-11-11T15:18:00;7.82;;;5.38;;
37297;SDS011;30517;51.932;4.278;2022-11-11T15:20:59;8.73;;;5.28;;
37297;SDS011;30517;51.932;4.278;2022-11-11T15:23:48;7.38;;;4.50;;
37297;SDS011;30517;51.932;4.278;2022-11-11T15:30:12;8.23;;;5.03;;
37297;SDS011;30517;51.932;4.278;2022-11-11T15:33:09;7.18;;;5.13;;
37297;SDS011;30517;51.932;4.278;2022-11-11T15:39:18;8.73;;;5.38;;
37297;SDS011;30517;51.932;4.278;2022-11-11T15:42:11;7.70;;;5.10;;
37297;SDS011;30517;51.932;4.278;2022-11-11T15:45:02;11.15;;;5.35;;
37297;SDS011;30517;51.932;4.278;2022-11-11T15:48:00;6.50;;;4.53;;
37297;SDS011;30517;51.932;4.278;2022-11-11T15:50:42;8.93;;;4.53;;
37297;SDS011;30517;51.932;4.278;2022-11-11T15:53:24;9.55;;;4.55;;
37297;SDS011;30517;51.932;4.278;2022-11-11T15:56:07;9.55;;;5.00;;
37297;SDS011;30517;51.932;4.278;2022-11-11T15:58:48;13.65;;;5.25;;
37297;SDS011;30517;51.932;4.278;2022-11-11T16:01:29;6.93;;;4.18;;
37297;SDS011;30517;51.932;4.278;2022-11-11T16:04:13;10.90;;;4.63;;
37297;SDS011;30517;51.932;4.278;2022-11-11T16:07:00;7.88;;;4.30;;
37297;SDS011;30517;51.932;4.278;2022-11-11T16:09:40;6.88;;;4.35;;
37297;SDS011;30517;51.932;4.278;2022-11-11T16:12:23;8.65;;;4.40;;
37297;SDS011;30517;51.932;4.278;2022-11-11T16:15:14;7.90;;;4.28;;
37297;SDS011;30517;51.932;4.278;2022-11-11T16:18:04;8.05;;;4.53;;
37297;SDS011;30517;51.932;4.278;2022-11-11T16:20:57;7.70;;;4.53;;
37297;SDS011;30517;51.932;4.278;2022-11-11T16:23:45;7.30;;;4.15;;
37297;SDS011;30517;51.932;4.278;2022-11-11T16:26:26;7.80;;;4.68;;
37297;SDS011;30517;51.932;4.278;2022-11-11T16:29:14;6.45;;;4.10;;
37297;SDS011;30517;51.932;4.278;2022-11-11T16:31:55;6.22;;;3.90;;
37297;SDS011;30517;51.932;4.278;2022-11-11T16:34:37;8.65;;;4.78;;
37297;SDS011;30517;51.932;4.278;2022-11-11T16:37:22;7.57;;;4.35;;
37297;SDS011;30517;51.932;4.278;2022-11-11T16:43:15;7.13;;;3.88;;
37297;SDS011;30517;51.932;4.278;2022-11-11T16:46:45;5.78;;;3.33;;
37297;SDS011;30517;51.932;4.278;2022-11-11T16:52:21;6.93;;;3.92;;
37297;SDS011;30517;51.932;4.278;2022-11-11T16:55:04;6.93;;;4.15;;
37297;SDS011;30517;51.932;4.278;2022-11-11T16:57:45;7.90;;;4.15;;
37297;SDS011;30517;51.932;4.278;2022-11-11T17:00:27;9.27;;;4.88;;
37297;SDS011;30517;51.932;4.278;2022-11-11T17:03:09;6.13;;;4.00;;
37297;SDS011;30517;51.932;4.278;2022-11-11T17:06:12;7.47;;;4.45;;
37297;SDS011;30517;51.932;4.278;2022-11-11T17:08:53;5.93;;;3.58;;
37297;SDS011;30517;51.932;4.278;2022-11-11T17:14:18;6.88;;;4.50;;
37297;SDS011;30517;51.932;4.278;2022-11-11T17:16:59;6.10;;;3.78;;
37297;SDS011;30517;51.932;4.278;2022-11-11T17:19:42;5.70;;;3.53;;
37297;SDS011;30517;51.932;4.278;2022-11-11T17:22:23;7.03;;;4.13;;
37297;SDS011;30517;51.932;4.278;2022-11-11T17:25:04;7.43;;;3.58;;
37297;SDS011;30517;51.932;4.278;2022-11-11T17:27:45;6.35;;;3.60;;
37297;SDS011;30517;51.932;4.278;2022-11-11T17:30:26;6.75;;;3.90;;
37297;SDS011;30517;51.932;4.278;2022-11-11T17:33:07;7.68;;;4.05;;
37297;SDS011;30517;51.932;4.278;2022-11-11T17:35:48;6.53;;;3.70;;
37297;SDS011;30517;51.932;4.278;2022-11-11T17:38:36;6.40;;;3.88;;
37297;SDS011;30517;51.932;4.278;2022-11-11T17:41:17;8.25;;;3.95;;
37297;SDS011;30517;51.932;4.278;2022-11-11T17:43:58;5.97;;;3.72;;
37297;SDS011;30517;51.932;4.278;2022-11-11T17:46:39;5.85;;;3.70;;
37297;SDS011;30517;51.932;4.278;2022-11-11T17:49:20;6.90;;;3.70;;
37297;SDS011;30517;51.932;4.278;2022-11-11T17:52:00;7.32;;;4.07;;
37297;SDS011;30517;51.932;4.278;2022-11-11T17:54:41;8.38;;;4.05;;
37297;SDS011;30517;51.932;4.278;2022-11-11T17:57:22;6.88;;;3.78;;
37297;SDS011;30517;51.932;4.278;2022-11-11T18:00:03;7.60;;;3.95;;
37297;SDS011;30517;51.932;4.278;2022-11-11T18:02:44;7.40;;;3.50;;
37297;SDS011;30517;51.932;4.278;2022-11-11T18:05:25;6.20;;;3.42;;
37297;SDS011;30517;51.932;4.278;2022-11-11T18:08:06;6.45;;;3.72;;
37297;SDS011;30517;51.932;4.278;2022-11-11T18:10:46;6.00;;;3.50;;